Time;durP1;ratioP1;P1;durP2;ratioP2;P2;SDS_P1;SDS_P2;PMS_P1;PMS_P2;Temp;Humidity;BMP_temperature;BMP_pressure;BME280_temperature;BME280_humidity;BME280_pressure;Samples;Min_cycle;Max_cycle;Signal;HPM_P1;HPM_P2
2021/10/06 00:01:30;;;;;;;5.03;1.23;;;9.00;98.00;;;;;;5067871;28;20024;-70
2021/10/06 00:03:55;;;;;;;4.97;1.30;;;9.10;98.00;;;;;;5074607;28;20380;-71
2021/10/06 00:06:24;;;;;;;3.22;1.10;;;9.10;98.00;;;;;;5073677;28;20096;-71
2021/10/06 00:08:50;;;;;;;3.25;1.20;;;9.20;98.00;;;;;;5063886;28;20025;-70
2021/10/06 00:11:16;;;;;;;4.07;1.20;;;9.20;98.00;;;;;;5075329;28;20042;-70
2021/10/06 00:13:41;;;;;;;3.92;1.20;;;9.10;98.00;;;;;;5076342;28;20048;-71
2021/10/06 00:16:10;;;;;;;6.38;1.27;;;9.00;98.00;;;;;;5064721;28;20028;-71
2021/10/06 00:18:37;;;;;;;4.10;1.20;;;9.00;98.00;;;;;;5075853;28;20055;-72
2021/10/06 00:21:03;;;;;;;3.33;1.17;;;8.90;98.00;;;;;;5077809;28;20433;-71
2021/10/06 00:23:30;;;;;;;5.57;1.98;;;8.80;98.00;;;;;;5075498;28;21500;-70
2021/10/06 00:25:55;;;;;;;3.60;1.20;;;8.70;98.00;;;;;;5077490;28;20040;-70
2021/10/06 00:28:21;;;;;;;5.07;1.40;;;8.60;98.00;;;;;;5077600;28;20325;-71
2021/10/06 00:30:47;;;;;;;3.13;1.20;;;8.60;98.00;;;;;;5070190;28;20085;-71
2021/10/06 00:33:13;;;;;;;3.63;1.42;;;8.50;98.00;;;;;;5069980;28;20070;-71
2021/10/06 00:35:39;;;;;;;4.43;1.45;;;8.40;98.00;;;;;;5073604;28;20321;-71
2021/10/06 00:38:04;;;;;;;2.97;1.17;;;8.30;98.00;;;;;;5075535;28;20021;-71
2021/10/06 00:40:30;;;;;;;5.03;1.27;;;8.20;98.00;;;;;;5076750;28;20043;-71
2021/10/06 00:42:56;;;;;;;3.92;1.40;;;8.00;98.00;;;;;;5076568;28;20028;-71
2021/10/06 00:45:21;;;;;;;5.97;1.40;;;7.90;98.00;;;;;;5076571;28;20107;-70
2021/10/06 00:47:47;;;;;;;5.95;1.70;;;7.90;98.00;;;;;;5073308;28;20028;-71
2021/10/06 00:50:13;;;;;;;6.70;1.98;;;7.80;98.00;;;;;;5064616;28;20024;-71
2021/10/06 00:52:39;;;;;;;3.17;1.35;;;7.70;98.00;;;;;;5072227;28;20024;-71
2021/10/06 00:55:08;;;;;;;2.88;1.10;;;7.80;98.00;;;;;;5076538;28;20749;-70
2021/10/06 00:57:34;;;;;;;2.95;1.10;;;7.80;98.00;;;;;;5075949;28;20344;-71
2021/10/06 01:00:03;;;;;;;4.57;1.10;;;8.20;98.00;;;;;;5075740;28;20098;-70
2021/10/06 01:02:28;;;;;;;4.75;1.20;;;8.50;98.00;;;;;;5074187;28;20031;-72
2021/10/06 01:04:54;;;;;;;3.83;1.55;;;8.60;98.00;;;;;;5076358;28;20324;-71
2021/10/06 01:07:23;;;;;;;3.17;1.10;;;8.50;98.00;;;;;;5074810;28;20042;-71
2021/10/06 01:09:49;;;;;;;5.30;1.27;;;8.40;98.00;;;;;;5073497;28;20032;-71
2021/10/06 01:12:14;;;;;;;6.63;1.20;;;8.50;98.00;;;;;;5071031;28;20418;-71
2021/10/06 01:14:40;;;;;;;3.30;1.65;;;8.60;98.00;;;;;;5075260;28;20056;-71
2021/10/06 01:17:06;;;;;;;3.25;1.00;;;8.60;98.00;;;;;;5076006;28;20021;-71
2021/10/06 01:19:32;;;;;;;4.18;1.50;;;8.70;98.00;;;;;;5074488;28;20057;-71
2021/10/06 01:21:59;;;;;;;3.22;1.15;;;8.80;98.00;;;;;;5074290;28;20425;-70
2021/10/06 01:24:26;;;;;;;3.03;1.10;;;8.80;98.00;;;;;;5075266;28;20029;-71
2021/10/06 01:26:52;;;;;;;3.20;1.25;;;8.80;98.00;;;;;;5063991;28;20051;-71
2021/10/06 01:29:18;;;;;;;6.03;1.27;;;8.80;98.00;;;;;;5075986;28;20106;-72
2021/10/06 01:31:46;;;;;;;4.00;1.40;;;8.70;98.00;;;;;;5071441;28;20028;-70
2021/10/06 01:34:12;;;;;;;4.00;1.20;;;8.50;98.00;;;;;;5076569;28;20426;-70
2021/10/06 01:36:38;;;;;;;2.50;1.00;;;8.40;98.00;;;;;;5075643;28;20109;-71
2021/10/06 01:39:08;;;;;;;7.15;1.15;;;8.50;98.00;;;;;;5073458;28;20025;-71
2021/10/06 01:41:37;;;;;;;5.32;1.33;;;8.50;98.00;;;;;;5074816;28;20169;-71
2021/10/06 01:44:03;;;;;;;3.05;1.30;;;8.40;98.00;;;;;;5072435;28;20291;-71
2021/10/06 01:46:30;;;;;;;3.60;1.00;;;8.50;98.00;;;;;;5075507;28;20036;-71
2021/10/06 01:48:56;;;;;;;2.55;0.93;;;8.50;98.00;;;;;;5073662;28;20447;-70
2021/10/06 01:51:23;;;;;;;5.00;1.23;;;8.60;98.00;;;;;;5071172;28;20020;-73
2021/10/06 01:53:48;;;;;;;7.30;1.30;;;8.70;98.00;;;;;;5072470;28;20029;-71
2021/10/06 01:56:14;;;;;;;5.80;1.05;;;8.80;98.00;;;;;;5075233;28;20031;-71
2021/10/06 01:58:40;;;;;;;2.97;0.90;;;8.90;98.00;;;;;;5068365;28;20029;-70
2021/10/06 02:01:06;;;;;;;2.58;0.90;;;9.00;98.00;;;;;;5070635;28;20083;-70
2021/10/06 02:03:34;;;;;;;4.22;1.00;;;9.00;98.00;;;;;;5074402;28;20036;-71
2021/10/06 02:06:00;;;;;;;3.72;1.20;;;9.00;98.00;;;;;;5072820;28;20032;-71
2021/10/06 02:08:25;;;;;;;2.58;0.90;;;9.00;98.00;;;;;;5074102;28;20364;-71
2021/10/06 02:10:51;;;;;;;4.00;1.05;;;9.00;98.00;;;;;;5074259;28;20033;-71
2021/10/06 02:13:17;;;;;;;3.03;0.90;;;9.10;98.00;;;;;;5071940;28;20028;-71
2021/10/06 02:15:42;;;;;;;2.85;1.13;;;9.20;98.00;;;;;;5074969;28;20104;-70
2021/10/06 02:18:08;;;;;;;4.50;1.15;;;9.20;98.00;;;;;;5063797;28;20048;-71
2021/10/06 02:20:37;;;;;;;4.65;1.35;;;9.20;98.00;;;;;;5059905;28;20124;-70
2021/10/06 02:23:03;;;;;;;5.00;1.00;;;9.00;98.00;;;;;;5073360;28;20391;-70
2021/10/06 02:25:29;;;;;;;7.38;1.40;;;8.90;98.00;;;;;;5074813;28;20028;-71
2021/10/06 02:27:55;;;;;;;2.65;1.20;;;9.00;98.00;;;;;;5074630;28;20036;-71
2021/10/06 02:30:20;;;;;;;2.90;1.10;;;8.80;98.00;;;;;;5074743;28;20470;-71
2021/10/06 02:32:46;;;;;;;2.70;0.98;;;8.90;98.00;;;;;;5074577;28;20393;-70
2021/10/06 02:35:12;;;;;;;5.18;1.40;;;9.00;98.00;;;;;;5072821;28;20028;-71
2021/10/06 02:37:41;;;;;;;2.75;0.90;;;9.10;98.00;;;;;;5068766;28;20060;-71
2021/10/06 02:40:11;;;;;;;2.42;1.00;;;9.30;98.00;;;;;;5074568;28;20658;-70
2021/10/06 02:42:40;;;;;;;4.25;0.90;;;9.30;98.00;;;;;;5075013;28;20086;-70
2021/10/06 02:45:11;;;;;;;3.60;1.20;;;9.20;98.00;;;;;;5074854;28;20025;-70
2021/10/06 02:47:39;;;;;;;3.25;1.27;;;9.10;98.00;;;;;;5069337;28;20032;-69
2021/10/06 02:50:06;;;;;;;5.47;1.00;;;9.00;98.00;;;;;;5072639;28;20025;-69
2021/10/06 02:52:32;;;;;;;3.53;1.02;;;9.00;98.00;;;;;;5072087;28;20413;-69
2021/10/06 02:54:58;;;;;;;3.10;0.90;;;9.00;98.00;;;;;;5074805;28;20032;-69
2021/10/06 02:57:23;;;;;;;6.05;1.00;;;9.00;98.00;;;;;;5073749;28;20021;-70
2021/10/06 02:59:52;;;;;;;5.63;1.17;;;8.90;98.00;;;;;;5074636;28;20032;-71
2021/10/06 03:02:18;;;;;;;3.13;0.90;;;8.90;98.00;;;;;;5073599;28;20162;-71
2021/10/06 03:04:44;;;;;;;3.15;1.00;;;9.00;98.00;;;;;;5072903;28;20162;-71
2021/10/06 03:07:09;;;;;;;3.17;1.13;;;9.00;98.00;;;;;;5073121;28;20107;-71
2021/10/06 03:09:35;;;;;;;5.10;1.52;;;8.90;98.00;;;;;;5069227;28;20107;-71
2021/10/06 03:12:01;;;;;;;4.70;1.10;;;8.90;98.00;;;;;;5067940;28;20021;-70
2021/10/06 03:14:29;;;;;;;2.28;0.93;;;9.10;98.00;;;;;;5068469;28;20107;-70
2021/10/06 03:16:57;;;;;;;4.57;0.90;;;9.20;98.00;;;;;;5074280;28;20028;-71
2021/10/06 03:19:23;;;;;;;4.68;1.10;;;9.30;98.00;;;;;;5074622;28;20040;-70
2021/10/06 03:21:51;;;;;;;5.22;1.20;;;9.30;98.00;;;;;;5071690;28;20051;-69
2021/10/06 03:24:19;;;;;;;4.55;1.10;;;9.30;97.80;;;;;;5063812;28;20424;-71
2021/10/06 03:26:48;;;;;;;4.07;0.98;;;9.40;97.60;;;;;;5074863;28;20029;-71
2021/10/06 03:29:14;;;;;;;1.98;0.90;;;9.40;97.50;;;;;;5074370;28;20033;-70
2021/10/06 03:31:39;;;;;;;2.88;0.90;;;9.50;97.40;;;;;;5071654;28;20025;-71
2021/10/06 03:34:05;;;;;;;3.15;0.90;;;9.50;97.20;;;;;;5074546;28;20020;-71
2021/10/06 03:36:30;;;;;;;2.35;0.82;;;9.50;97.30;;;;;;5064047;28;20029;-70
2021/10/06 03:38:56;;;;;;;4.35;1.10;;;9.40;97.50;;;;;;5069859;28;20028;-69
2021/10/06 03:41:22;;;;;;;2.75;1.10;;;9.40;97.60;;;;;;5062278;28;20024;-70
2021/10/06 03:43:48;;;;;;;2.70;0.98;;;9.40;97.50;;;;;;5063900;28;20040;-70
2021/10/06 03:46:14;;;;;;;4.35;1.00;;;9.30;97.60;;;;;;5070673;28;20028;-71
2021/10/06 03:48:39;;;;;;;4.43;1.10;;;9.30;97.70;;;;;;5076209;28;20436;-71
2021/10/06 03:51:05;;;;;;;2.10;0.95;;;9.30;97.80;;;;;;5071036;28;20411;-70
2021/10/06 03:53:31;;;;;;;2.30;1.00;;;9.30;98.00;;;;;;5063652;28;20307;-71
2021/10/06 03:55:56;;;;;;;3.88;1.48;;;9.20;98.00;;;;;;5067658;28;20099;-71
2021/10/06 03:58:22;;;;;;;4.78;1.20;;;9.20;98.00;;;;;;5076308;28;20184;-71
2021/10/06 04:00:48;;;;;;;4.93;1.00;;;9.20;98.00;;;;;;5076950;28;20044;-70
2021/10/06 04:03:14;;;;;;;2.78;0.82;;;9.20;97.80;;;;;;5076164;28;20035;-70
2021/10/06 04:05:42;;;;;;;1.83;0.80;;;9.20;97.90;;;;;;5076731;28;20303;-70
2021/10/06 04:08:11;;;;;;;2.78;1.10;;;9.30;98.00;;;;;;5075938;28;20115;-70
2021/10/06 04:10:37;;;;;;;5.45;1.10;;;9.20;98.00;;;;;;5077465;28;20299;-71
2021/10/06 04:13:03;;;;;;;2.20;0.90;;;9.20;98.00;;;;;;5069662;28;20054;-70
2021/10/06 04:15:28;;;;;;;5.00;1.00;;;9.20;97.90;;;;;;5074748;28;20396;-69
2021/10/06 04:17:54;;;;;;;3.65;1.13;;;9.10;97.80;;;;;;5074240;28;20040;-71
2021/10/06 04:20:20;;;;;;;3.20;1.13;;;9.10;97.60;;;;;;5070937;28;20303;-70
2021/10/06 04:22:46;;;;;;;4.25;1.08;;;9.10;98.00;;;;;;5074053;28;20029;-71
2021/10/06 04:25:11;;;;;;;4.45;1.23;;;9.10;97.90;;;;;;5075161;28;20137;-70
2021/10/06 04:27:37;;;;;;;3.55;1.00;;;9.20;97.90;;;;;;5070369;28;20448;-70
2021/10/06 04:30:07;;;;;;;4.25;1.30;;;9.20;97.90;;;;;;5066397;28;20021;-71
2021/10/06 04:32:33;;;;;;;3.63;1.20;;;9.20;97.70;;;;;;5073059;28;20036;-71
2021/10/06 04:34:59;;;;;;;3.92;1.20;;;9.20;97.80;;;;;;5076859;28;20028;-70
2021/10/06 04:37:26;;;;;;;3.78;0.93;;;9.20;97.90;;;;;;5057543;28;20021;-71
2021/10/06 04:39:51;;;;;;;4.63;1.00;;;9.20;97.50;;;;;;5057990;28;20103;-71
2021/10/06 04:42:17;;;;;;;5.75;1.30;;;9.20;97.60;;;;;;5072368;28;20485;-71
2021/10/06 04:44:46;;;;;;;4.28;1.30;;;9.20;97.60;;;;;;5071185;28;20029;-71
2021/10/06 04:47:12;;;;;;;4.55;1.58;;;9.20;97.60;;;;;;5066863;28;20107;-70
2021/10/06 04:49:37;;;;;;;5.00;1.35;;;9.20;97.60;;;;;;5072062;28;20104;-70
2021/10/06 04:52:03;;;;;;;4.05;1.15;;;9.20;97.70;;;;;;5063379;28;20132;-71
2021/10/06 04:54:29;;;;;;;4.10;1.20;;;9.20;97.70;;;;;;5071653;28;20025;-71
2021/10/06 04:56:54;;;;;;;3.35;0.95;;;9.20;97.80;;;;;;5070726;28;20028;-70
2021/10/06 04:59:22;;;;;;;3.45;0.95;;;9.20;97.40;;;;;;5057600;28;20025;-70
2021/10/06 05:01:51;;;;;;;3.53;1.10;;;9.30;97.50;;;;;;5062161;28;20356;-69
2021/10/06 05:04:17;;;;;;;3.33;1.20;;;9.30;97.60;;;;;;5059522;28;20483;-68
2021/10/06 05:06:42;;;;;;;4.63;1.20;;;9.30;97.40;;;;;;5059939;28;20060;-69
2021/10/06 05:09:08;;;;;;;4.93;1.73;;;9.30;97.40;;;;;;5064212;28;20110;-69
2021/10/06 05:11:34;;;;;;;5.63;1.30;;;9.30;97.30;;;;;;5076507;28;20033;-71
2021/10/06 05:14:02;;;;;;;8.05;1.77;;;9.20;97.60;;;;;;5076546;28;20363;-71
2021/10/06 05:16:30;;;;;;;9.15;2.60;;;9.10;97.60;;;;;;5073052;28;20079;-71
2021/10/06 05:18:56;;;;;;;3.55;1.30;;;9.10;97.70;;;;;;5073717;28;20111;-70
2021/10/06 05:21:21;;;;;;;3.80;1.30;;;9.00;98.00;;;;;;5075927;28;20496;-71
2021/10/06 05:24:07;;;;;;;4.40;1.10;;;9.10;97.70;;;;;;5076057;28;20104;-69
2021/10/06 05:26:36;;;;;;;8.90;1.30;;;9.10;97.80;;;;;;5076431;28;20052;-71
2021/10/06 05:29:02;;;;;;;4.18;1.00;;;9.10;97.90;;;;;;5076767;28;20029;-71
2021/10/06 05:31:28;;;;;;;6.10;1.30;;;9.20;97.50;;;;;;5076849;28;20021;-70
2021/10/06 05:33:56;;;;;;;4.68;1.20;;;9.30;97.40;;;;;;5076711;28;20070;-70
2021/10/06 05:36:25;;;;;;;4.53;1.10;;;9.30;97.20;;;;;;5076229;28;20032;-70
2021/10/06 05:38:51;;;;;;;5.43;1.40;;;9.20;97.40;;;;;;5075412;28;20099;-69
2021/10/06 05:41:20;;;;;;;4.68;1.27;;;9.10;97.60;;;;;;5075651;28;20033;-69
2021/10/06 05:43:46;;;;;;;6.18;1.52;;;9.10;97.80;;;;;;5067763;28;20367;-69
2021/10/06 05:46:11;;;;;;;3.80;1.30;;;9.00;97.80;;;;;;5062404;28;20028;-69
2021/10/06 05:48:37;;;;;;;4.53;1.33;;;9.00;98.00;;;;;;5075630;28;20112;-68
2021/10/06 05:51:02;;;;;;;9.23;1.70;;;8.90;98.00;;;;;;5075564;28;20031;-71
2021/10/06 05:53:28;;;;;;;4.97;1.40;;;8.80;98.00;;;;;;5074677;28;20108;-71
2021/10/06 05:55:57;;;;;;;4.30;1.20;;;8.80;98.00;;;;;;5075435;28;20072;-71
2021/10/06 05:58:23;;;;;;;3.85;1.35;;;8.80;98.00;;;;;;5076255;28;20466;-71
2021/10/06 06:00:49;;;;;;;3.60;1.13;;;8.90;98.00;;;;;;5076069;28;20028;-70
2021/10/06 06:03:15;;;;;;;7.07;1.50;;;9.00;98.00;;;;;;5075152;28;20455;-71
2021/10/06 06:05:41;;;;;;;5.18;1.52;;;9.00;98.00;;;;;;5075613;28;20036;-70
2021/10/06 06:08:10;;;;;;;9.80;1.88;;;9.00;98.00;;;;;;5075075;28;20024;-71
2021/10/06 06:10:36;;;;;;;4.47;1.05;;;9.00;98.00;;;;;;5075879;28;20363;-71
2021/10/06 06:13:02;;;;;;;3.30;1.20;;;9.10;97.50;;;;;;5076070;28;20017;-70
2021/10/06 06:15:29;;;;;;;8.63;1.70;;;9.10;97.80;;;;;;5066815;28;20113;-70
2021/10/06 06:17:54;;;;;;;3.92;1.20;;;9.10;98.00;;;;;;5055755;28;20041;-70
2021/10/06 06:20:23;;;;;;;3.83;1.40;;;9.10;98.00;;;;;;5055770;28;20345;-70
2021/10/06 06:22:53;;;;;;;4.55;1.50;;;9.10;97.70;;;;;;5060096;28;20121;-71
2021/10/06 06:25:20;;;;;;;4.57;1.20;;;9.10;97.70;;;;;;5075851;28;20425;-71
2021/10/06 06:27:46;;;;;;;3.63;1.40;;;9.00;97.80;;;;;;5075374;28;20036;-71
2021/10/06 06:30:12;;;;;;;4.43;1.10;;;9.00;97.80;;;;;;5075762;28;20041;-69
2021/10/06 06:32:38;;;;;;;3.33;1.10;;;9.00;98.00;;;;;;5075622;28;20068;-70
2021/10/06 06:35:10;;;;;;;3.67;1.00;;;9.00;97.70;;;;;;5075761;28;20024;-69
2021/10/06 06:37:36;;;;;;;5.55;1.25;;;9.00;97.80;;;;;;5074547;28;20021;-70
2021/10/06 06:40:03;;;;;;;6.18;1.45;;;8.90;97.80;;;;;;5074593;28;20078;-69
2021/10/06 06:42:31;;;;;;;4.38;1.48;;;8.90;97.70;;;;;;5075704;28;20032;-70
2021/10/06 06:44:57;;;;;;;3.90;1.33;;;8.90;97.80;;;;;;5075556;28;20024;-70
2021/10/06 06:47:23;;;;;;;6.10;1.52;;;8.80;98.00;;;;;;5074001;28;20082;-69
2021/10/06 06:49:49;;;;;;;5.28;1.90;;;8.80;98.00;;;;;;5068701;28;20037;-70
2021/10/06 06:52:18;;;;;;;3.33;1.25;;;8.80;98.00;;;;;;5054396;28;20418;-70
2021/10/06 06:54:43;;;;;;;5.45;1.40;;;8.80;98.00;;;;;;5055377;28;20029;-71
2021/10/06 06:57:09;;;;;;;3.55;1.30;;;8.80;98.00;;;;;;5055508;28;20102;-70
2021/10/06 06:59:35;;;;;;;2.95;1.50;;;8.70;98.00;;;;;;5074509;28;20036;-71
2021/10/06 07:02:00;;;;;;;4.82;1.20;;;8.70;98.00;;;;;;5059230;28;20124;-70
2021/10/06 07:04:26;;;;;;;4.07;1.23;;;8.60;98.00;;;;;;5055453;28;20033;-71
2021/10/06 07:06:53;;;;;;;7.65;1.30;;;8.70;98.00;;;;;;5063262;28;20028;-70
2021/10/06 07:09:24;;;;;;;4.35;1.13;;;8.80;98.00;;;;;;5075321;28;20322;-70
2021/10/06 07:11:49;;;;;;;4.07;1.17;;;8.90;97.90;;;;;;5075317;28;20095;-70
2021/10/06 07:14:15;;;;;;;4.07;1.30;;;9.00;97.30;;;;;;5075353;28;20424;-70
2021/10/06 07:16:41;;;;;;;10.02;1.20;;;9.10;96.80;;;;;;5072356;28;20100;-70
2021/10/06 07:19:06;;;;;;;4.88;1.35;;;9.30;95.30;;;;;;5077861;28;20122;-71
2021/10/06 07:21:32;;;;;;;5.72;1.60;;;9.40;95.60;;;;;;5079477;28;20021;-71
2021/10/06 07:23:58;;;;;;;3.63;1.10;;;9.50;95.50;;;;;;5078143;28;20389;-70
2021/10/06 07:26:23;;;;;;;4.70;1.52;;;9.60;95.50;;;;;;5079236;28;20017;-70
2021/10/06 07:28:49;;;;;;;5.03;1.30;;;9.70;95.00;;;;;;5078322;28;20017;-70
2021/10/06 07:31:15;;;;;;;3.95;1.30;;;9.70;94.70;;;;;;5078752;28;20033;-70
2021/10/06 07:33:41;;;;;;;4.45;1.35;;;10.20;95.60;;;;;;5078785;28;20017;-71
2021/10/06 07:36:06;;;;;;;6.30;2.15;;;10.70;92.90;;;;;;5077818;28;20025;-70
2021/10/06 07:38:32;;;;;;;4.72;1.20;;;10.50;92.20;;;;;;5077817;28;20364;-70
2021/10/06 07:40:58;;;;;;;3.00;1.33;;;10.30;92.40;;;;;;5079009;28;20483;-70
2021/10/06 07:43:27;;;;;;;5.30;1.20;;;10.10;92.50;;;;;;5075248;28;20028;-71
2021/10/06 07:45:53;;;;;;;6.45;1.42;;;10.00;93.20;;;;;;5078720;28;20033;-71
2021/10/06 07:48:19;;;;;;;3.63;1.33;;;10.00;93.10;;;;;;5078669;28;20073;-70
2021/10/06 07:50:45;;;;;;;5.93;1.75;;;9.90;93.70;;;;;;5078750;28;20056;-70
2021/10/06 07:53:10;;;;;;;7.78;1.80;;;10.10;93.60;;;;;;5077504;28;20405;-71
2021/10/06 07:55:36;;;;;;;8.23;1.33;;;10.10;92.50;;;;;;5078777;28;20023;-71
2021/10/06 07:58:02;;;;;;;3.92;1.23;;;10.30;91.70;;;;;;5078511;28;20020;-70
2021/10/06 08:00:28;;;;;;;3.13;1.10;;;10.40;91.30;;;;;;5075758;28;20155;-70
2021/10/06 08:02:53;;;;;;;6.38;1.40;;;10.70;91.30;;;;;;5058528;28;20163;-70
2021/10/06 08:05:19;;;;;;;6.93;1.50;;;11.30;89.90;;;;;;5067540;28;20317;-70
2021/10/06 08:07:45;;;;;;;6.25;1.30;;;11.60;87.10;;;;;;5066374;28;20465;-70
2021/10/06 08:10:11;;;;;;;5.13;1.48;;;11.40;88.00;;;;;;5058181;28;20029;-70
2021/10/06 08:12:36;;;;;;;5.95;1.38;;;11.10;87.90;;;;;;5058531;28;20021;-70
2021/10/06 08:15:02;;;;;;;7.60;1.38;;;11.00;88.60;;;;;;5058193;28;20364;-70
2021/10/06 08:17:28;;;;;;;7.43;1.45;;;11.20;88.20;;;;;;5058768;28;20052;-70
2021/10/06 08:19:54;;;;;;;7.43;1.48;;;11.10;88.40;;;;;;5058252;28;20032;-70
2021/10/06 08:22:19;;;;;;;5.93;1.40;;;11.00;89.10;;;;;;5056860;28;20032;-71
2021/10/06 08:24:45;;;;;;;4.22;1.27;;;11.20;89.50;;;;;;5058259;28;20036;-70
2021/10/06 08:27:13;;;;;;;4.90;1.30;;;11.40;87.90;;;;;;5057949;28;20025;-70
2021/10/06 08:29:40;;;;;;;5.45;1.50;;;11.40;88.20;;;;;;5057762;28;20060;-71
2021/10/06 08:32:06;;;;;;;6.32;1.40;;;11.40;87.90;;;;;;5058066;28;20021;-70
2021/10/06 08:34:31;;;;;;;6.95;1.52;;;11.30;87.80;;;;;;5072537;28;20086;-69
2021/10/06 08:36:58;;;;;;;8.20;1.30;;;11.00;88.20;;;;;;5076969;28;20060;-69
2021/10/06 08:39:23;;;;;;;3.88;1.38;;;11.00;88.50;;;;;;5077740;28;20025;-69
2021/10/06 08:41:49;;;;;;;3.60;1.20;;;11.00;88.40;;;;;;5078040;28;20028;-69
2021/10/06 08:44:16;;;;;;;4.63;1.58;;;11.00;89.80;;;;;;5058295;28;20021;-69
2021/10/06 08:46:43;;;;;;;4.30;1.40;;;12.40;86.70;;;;;;5057852;28;20021;-71
2021/10/06 08:49:16;;;;;;;4.35;1.10;;;13.60;83.20;;;;;;5057687;28;20024;-70
2021/10/06 08:51:42;;;;;;;4.80;1.10;;;14.40;80.30;;;;;;5057282;28;20322;-71
2021/10/06 08:54:10;;;;;;;6.07;1.20;;;14.80;78.20;;;;;;5057115;28;20271;-71
2021/10/06 08:56:36;;;;;;;7.05;1.90;;;15.30;76.70;;;;;;5057419;28;20029;-70
2021/10/06 08:59:03;;;;;;;3.33;1.02;;;15.20;76.30;;;;;;5059885;28;20078;-72
2021/10/06 09:01:30;;;;;;;5.00;1.08;;;14.10;78.00;;;;;;5077541;28;20024;-70
2021/10/06 09:04:03;;;;;;;5.70;1.20;;;13.30;80.80;;;;;;5077365;28;20075;-70
2021/10/06 09:06:43;;;;;;;4.95;1.10;;;12.80;82.30;;;;;;5076955;28;20321;-70
2021/10/06 09:09:17;;;;;;;7.22;1.50;;;12.00;84.00;;;;;;5076781;28;20030;-71
2021/10/06 09:11:47;;;;;;;;;;;11.80;85.90;;;;;;5077780;28;20039;-70
2021/10/06 09:14:13;;;;;;;5.03;1.60;;;11.70;87.00;;;;;;5077284;28;19911;-70
2021/10/06 09:16:42;;;;;;;4.90;1.20;;;11.50;87.30;;;;;;5077235;28;20024;-70
2021/10/06 09:19:09;;;;;;;7.13;1.70;;;11.50;87.40;;;;;;5076949;28;20448;-70
2021/10/06 09:21:55;;;;;;;5.50;1.30;;;11.60;87.50;;;;;;5077018;28;20020;-70
2021/10/06 09:24:23;;;;;;;4.95;1.60;;;11.40;88.20;;;;;;5075988;28;20317;-70
2021/10/06 09:27:05;;;;;;;3.75;1.10;;;11.20;89.20;;;;;;5076890;28;20024;-70
2021/10/06 09:29:30;;;;;;;5.18;1.63;;;11.10;88.90;;;;;;5076742;28;20025;-70
2021/10/06 09:31:57;;;;;;;6.45;1.35;;;11.50;88.80;;;;;;5075996;28;20031;-71
2021/10/06 09:34:23;;;;;;;6.50;1.17;;;12.90;86.00;;;;;;5076191;28;20037;-69
2021/10/06 09:36:48;;;;;;;3.53;1.23;;;13.30;83.20;;;;;;5066707;28;20039;-71
2021/10/06 09:39:14;;;;;;;4.45;1.30;;;13.10;83.40;;;;;;5056757;28;20023;-70
2021/10/06 09:41:49;;;;;;;8.95;1.35;;;13.00;84.20;;;;;;5060022;28;20021;-70
2021/10/06 09:44:23;;;;;;;4.13;1.30;;;12.70;85.40;;;;;;5074994;28;20024;-70
2021/10/06 09:46:50;;;;;;;7.60;1.25;;;12.80;84.90;;;;;;5075425;28;20020;-70
2021/10/06 09:49:31;;;;;;;4.28;1.40;;;12.60;85.20;;;;;;5076411;28;20032;-69
2021/10/06 09:52:17;;;;;;;3.40;0.90;;;12.80;84.00;;;;;;5075409;28;20295;-70
2021/10/06 09:54:50;;;;;;;4.47;1.08;;;13.40;82.80;;;;;;5076448;28;20048;-70
2021/10/06 09:57:32;;;;;;;2.58;0.93;;;13.50;83.20;;;;;;5076271;28;20098;-70
2021/10/06 10:00:04;;;;;;;5.80;1.25;;;13.60;82.20;;;;;;5075283;28;20465;-70
2021/10/06 10:02:30;;;;;;;2.65;1.02;;;13.10;82.60;;;;;;5075178;28;20039;-70
2021/10/06 10:04:57;;;;;;;5.93;0.98;;;12.80;83.60;;;;;;5076055;28;20028;-70
2021/10/06 10:07:26;;;;;;;4.32;0.93;;;12.80;83.60;;;;;;5075100;28;20060;-70
2021/10/06 10:09:52;;;;;;;5.18;1.10;;;13.00;82.10;;;;;;5067363;28;20041;-70
2021/10/06 10:12:23;;;;;;;6.38;1.08;;;12.90;82.40;;;;;;5055038;28;20033;-70
2021/10/06 10:14:50;;;;;;;5.50;1.02;;;12.80;82.50;;;;;;5055144;28;20029;-70
2021/10/06 10:17:19;;;;;;;5.07;0.80;;;12.80;82.20;;;;;;5055943;28;20071;-70
2021/10/06 10:19:51;;;;;;;3.85;1.00;;;12.60;83.40;;;;;;5055810;28;20350;-70
2021/10/06 10:22:20;;;;;;;3.88;1.05;;;12.70;81.90;;;;;;5054846;28;20021;-70
2021/10/06 10:24:48;;;;;;;4.13;0.80;;;12.90;81.70;;;;;;5073020;28;20301;-70
2021/10/06 10:27:20;;;;;;;5.40;1.27;;;13.40;81.40;;;;;;5073612;28;20032;-70
2021/10/06 10:30:04;;;;;;;3.17;1.02;;;14.20;80.20;;;;;;5075827;28;20027;-71
2021/10/06 10:32:48;;;;;;;4.20;0.90;;;14.50;77.10;;;;;;5075971;28;20417;-70
2021/10/06 10:35:14;;;;;;;5.60;1.42;;;14.20;78.00;;;;;;5075739;28;20039;-71
2021/10/06 10:37:52;;;;;;;3.85;0.90;;;14.10;77.50;;;;;;5058214;28;20032;-70
2021/10/06 10:40:35;;;;;;;4.03;1.23;;;13.60;77.70;;;;;;5066903;28;20039;-70
2021/10/06 10:43:24;;;;;;;4.13;0.93;;;13.50;78.80;;;;;;5055587;28;20429;-70
2021/10/06 10:46:07;;;;;;;2.90;0.82;;;13.20;79.40;;;;;;5073491;28;20028;-71
2021/10/06 10:48:39;;;;;;;11.85;1.80;;;13.10;79.60;;;;;;5073365;28;20033;-70
2021/10/06 10:51:07;;;;;;;5.38;1.10;;;13.20;80.50;;;;;;5059750;28;20056;-70
2021/10/06 10:53:51;;;;;;;3.72;0.88;;;13.60;79.90;;;;;;5066220;28;20037;-70
2021/10/06 10:56:39;;;;;;;5.72;1.05;;;13.60;77.50;;;;;;5069016;28;20069;-70
2021/10/06 10:59:14;;;;;;;4.72;1.10;;;13.40;80.90;;;;;;5068851;28;20044;-70
2021/10/06 11:01:58;;;;;;;;;;;13.80;79.80;;;;;;5057102;28;20088;-70
2021/10/06 11:04:35;;;;;;;3.88;0.90;;;15.00;78.50;;;;;;5074831;28;20328;-70
2021/10/06 11:07:21;;;;;;;7.38;0.95;;;16.40;74.20;;;;;;5073997;28;20465;-70
2021/10/06 11:10:19;;;;;;;3.28;0.93;;;15.90;73.00;;;;;;5075303;28;20024;-69
2021/10/06 11:13:03;;;;;;;4.25;1.00;;;15.20;74.50;;;;;;5071788;28;20086;-69
2021/10/06 11:15:30;;;;;;;4.93;1.10;;;14.30;76.30;;;;;;5066460;28;20520;-69
2021/10/06 11:18:18;;;;;;;4.65;0.90;;;14.00;77.80;;;;;;5065113;28;20445;-69
2021/10/06 11:21:00;;;;;;;3.10;1.02;;;13.40;79.50;;;;;;5069680;28;20032;-70
2021/10/06 11:23:31;;;;;;;2.95;1.15;;;13.40;80.50;;;;;;5063852;28;20028;-70
2021/10/06 11:26:07;;;;;;;4.75;1.00;;;13.30;80.50;;;;;;5055135;28;20021;-70
2021/10/06 11:28:39;;;;;;;4.55;1.98;;;13.40;80.20;;;;;;5055164;28;20040;-69
2021/10/06 11:31:05;;;;;;;2.83;1.10;;;13.50;79.70;;;;;;5054998;28;20051;-69
2021/10/06 11:33:34;;;;;;;3.90;1.27;;;13.40;80.80;;;;;;5059960;28;20032;-68
2021/10/06 11:36:23;;;;;;;5.85;1.05;;;13.40;80.90;;;;;;5074941;28;20067;-68
2021/10/06 11:38:54;;;;;;;5.45;1.27;;;13.10;82.00;;;;;;5073109;28;20440;-68
2021/10/06 11:41:20;;;;;;;3.20;0.95;;;13.50;81.20;;;;;;5055193;28;20029;-72
2021/10/06 11:43:54;;;;;;;4.15;1.10;;;13.40;80.70;;;;;;5054998;28;20029;-70
2021/10/06 11:46:37;;;;;;;5.60;1.70;;;13.20;81.60;;;;;;5053907;28;20426;-69
2021/10/06 11:49:07;;;;;;;5.85;1.23;;;13.10;82.20;;;;;;5055083;28;20037;-70
2021/10/06 11:51:46;;;;;;;3.38;1.13;;;13.00;81.20;;;;;;5062576;28;20110;-70
2021/10/06 11:54:14;;;;;;;4.07;1.10;;;12.80;81.70;;;;;;5074672;28;20021;-70
2021/10/06 11:56:40;;;;;;;4.68;1.75;;;12.70;81.40;;;;;;5075150;28;20155;-69
2021/10/06 11:59:17;;;;;;;5.30;1.73;;;13.20;82.50;;;;;;5074912;28;20457;-70
2021/10/06 12:01:58;;;;;;;6.95;1.02;;;14.30;80.40;;;;;;5063301;28;20155;-71
2021/10/06 12:04:26;;;;;;;4.75;1.00;;;15.20;78.10;;;;;;5056710;28;20071;-70
2021/10/06 12:06:59;;;;;;;3.22;1.00;;;15.50;75.50;;;;;;5057218;28;20032;-69
2021/10/06 12:09:28;;;;;;;2.67;0.77;;;15.80;75.80;;;;;;5058262;28;20028;-70
2021/10/06 12:11:54;;;;;;;3.17;0.85;;;15.70;74.30;;;;;;5059681;28;20564;-69
2021/10/06 12:14:28;;;;;;;4.00;0.82;;;15.40;74.50;;;;;;5075882;28;20028;-70
2021/10/06 12:17:21;;;;;;;3.00;1.15;;;15.30;74.50;;;;;;5078381;28;20169;-70
2021/10/06 12:20:13;;;;;;;3.30;1.00;;;15.50;75.40;;;;;;5078426;28;20040;-70
2021/10/06 12:22:43;;;;;;;3.90;0.82;;;15.30;75.10;;;;;;5072617;28;20044;-71
2021/10/06 12:25:17;;;;;;;3.13;0.95;;;15.60;73.50;;;;;;5068023;28;20068;-70
2021/10/06 12:27:50;;;;;;;9.15;1.08;;;15.90;74.50;;;;;;5058093;28;20056;-70
2021/10/06 12:30:16;;;;;;;3.03;1.20;;;16.00;72.20;;;;;;5074825;28;20021;-70
2021/10/06 12:32:48;;;;;;;2.95;0.90;;;16.10;73.20;;;;;;5077969;28;20051;-70
2021/10/06 12:35:23;;;;;;;3.83;0.93;;;16.60;71.40;;;;;;5077882;28;20017;-70
2021/10/06 12:37:59;;;;;;;3.03;0.90;;;16.30;70.40;;;;;;5076505;28;20028;-70
2021/10/06 12:40:37;;;;;;;5.28;1.20;;;15.30;72.20;;;;;;5077882;28;20043;-70
2021/10/06 12:43:04;;;;;;;6.22;1.48;;;14.40;74.50;;;;;;5077837;28;20479;-69
2021/10/06 12:45:31;;;;;;;3.97;1.00;;;14.40;75.50;;;;;;5077805;28;20429;-71
2021/10/06 12:47:57;;;;;;;3.33;0.95;;;15.10;75.30;;;;;;5077863;28;20031;-70
2021/10/06 12:50:24;;;;;;;2.33;0.80;;;15.40;74.10;;;;;;5068579;28;20318;-70
2021/10/06 12:52:49;;;;;;;2.55;1.05;;;16.00;72.90;;;;;;5073632;28;20031;-70
2021/10/06 12:55:16;;;;;;;19.25;1.20;;;16.10;72.50;;;;;;5077379;28;20025;-70
2021/10/06 12:57:43;;;;;;;3.58;0.80;;;15.90;72.50;;;;;;5077251;28;20028;-70
2021/10/06 13:00:25;;;;;;;4.75;1.27;;;15.60;72.80;;;;;;5075941;28;20024;-70